Main page
METAR-TAF:

METAR-TAF

Airports :

Shenandoah Municipal Airport

Shenandoah, Iowa, United States

latitude: 40-45N, longitude: 095-25W, elevation: 971 ft

Current weather observation

The report was made 31 minutes ago, at 04:35 UTC
Wind 15 mph from the West/Southwest with gusts up to 23 mph
Temperature 70°F
Humidity 100%
Pressure 29.96 in. Hg
Visibility: 6 miles
Few clouds at a height of 3000 ft
Scattered clouds at a height of 4800 ft
Broken clouds at a height of 5500 ft
light rain

METAR: KSDA 190435Z AUTO 24013G20KT 6SM -RA FEW030 SCT048 BKN055 21/21 A2996 RMK AO2

Time: 00:06 (05:06 UTC)


TAF: missing

Weather observations and forecasts of more than 4000 airports (METAR and TAF reports).

The available stations are represented by yellow and red dots on the map.

Hover mouse over dot to see the name of the station.

Then click to see weather observations and forecasts.

To change the map : click on the green buttons with a black cross to zoom in, on the green button with a dash to zoom out, or on the green arrows for adjacent maps.


METAR-TAF: